createdAt,value
2018-01-11T00:02:24.924Z,99861.14
2018-01-11T00:04:52.387Z,99859.38
2018-01-11T00:07:19.933Z,99857.59
2018-01-11T00:09:47.396Z,99863.68
2018-01-11T00:12:14.862Z,99862.02
2018-01-11T00:14:42.317Z,99857.99
2018-01-11T00:17:09.793Z,99857.34
2018-01-11T00:19:37.352Z,99858.56
2018-01-11T00:22:04.806Z,99862.11
2018-01-11T00:24:32.260Z,99863.20
2018-01-11T00:26:59.713Z,99864.36
2018-01-11T00:29:27.181Z,99867.00
2018-01-11T00:31:54.711Z,99869.53
2018-01-11T00:34:22.161Z,99868.55
2018-01-11T00:36:49.624Z,99863.94
2018-01-11T00:39:17.109Z,99863.06
2018-01-11T00:41:44.559Z,99867.69
2018-01-11T00:44:12.018Z,99863.61
2018-01-11T00:46:39.540Z,99861.14
2018-01-11T00:49:07.004Z,99857.00
2018-01-11T00:51:34.462Z,99866.20
2018-01-11T00:54:01.929Z,99862.45
2018-01-11T00:56:29.428Z,99862.19
2018-01-11T00:58:56.983Z,99870.62
2018-01-11T01:01:24.428Z,99872.81
2018-01-11T01:03:51.959Z,99870.27
2018-01-11T01:06:19.428Z,99877.48
2018-01-11T01:08:46.886Z,99882.38
2018-01-11T01:11:14.355Z,99878.10
2018-01-11T01:13:41.802Z,99883.92
2018-01-11T01:16:09.365Z,99880.76
2018-01-11T01:18:36.814Z,99887.77
2018-01-11T01:21:04.296Z,99885.75
2018-01-11T01:23:31.744Z,99885.90
2018-01-11T01:25:59.202Z,99893.44
2018-01-11T01:28:26.719Z,99886.78
2018-01-11T01:30:54.192Z,99891.15
2018-01-11T01:33:21.658Z,99888.90
2018-01-11T01:35:49.125Z,99882.98
2018-01-11T01:38:16.601Z,99886.95
2018-01-11T01:40:44.059Z,99888.10
2018-01-11T01:43:11.520Z,99888.28
2018-01-11T01:45:38.974Z,99888.63
2018-01-11T01:48:06.433Z,99884.83
2018-01-11T01:50:33.889Z,99885.63
2018-01-11T01:53:01.346Z,99883.16
2018-01-11T01:55:28.795Z,99883.23
2018-01-11T01:57:56.266Z,99887.25
2018-01-11T02:00:23.731Z,99880.00
2018-01-11T02:02:51.212Z,99880.53
2018-01-11T02:05:18.666Z,99877.83
2018-01-11T02:07:46.117Z,99875.06
2018-01-11T02:10:13.600Z,99874.43
2018-01-11T02:12:41.050Z,99879.32
2018-01-11T02:15:08.505Z,99885.01
2018-01-11T02:17:35.974Z,99878.45
2018-01-11T02:20:03.477Z,99881.04
2018-01-11T02:22:30.950Z,99885.66
2018-01-11T02:24:58.409Z,99888.07
2018-01-11T02:27:25.868Z,99888.00
2018-01-11T02:29:53.345Z,99885.58
2018-01-11T02:32:21.749Z,99889.97
2018-01-11T02:34:49.238Z,99887.82
2018-01-11T02:37:16.726Z,99892.19
2018-01-11T02:39:44.185Z,99891.30
2018-01-11T02:42:11.632Z,99888.75
2018-01-11T02:44:39.106Z,99892.89
2018-01-11T02:47:06.558Z,99891.30
2018-01-11T02:49:34.018Z,99895.37
2018-01-11T02:52:01.477Z,99901.86
2018-01-11T02:54:28.973Z,99894.60
2018-01-11T02:56:56.429Z,99898.91
2018-01-11T02:59:23.922Z,99905.01
2018-01-11T03:01:51.481Z,99907.55
2018-01-11T03:04:18.946Z,99905.31
2018-01-11T03:06:46.412Z,99903.59
2018-01-11T03:09:13.859Z,99902.02
2018-01-11T03:11:41.329Z,99902.83
2018-01-11T03:14:08.788Z,99907.76
2018-01-11T03:16:36.309Z,99901.96
2018-01-11T03:19:03.786Z,99904.63
2018-01-11T03:21:31.257Z,99903.25
2018-01-11T03:23:58.703Z,99894.56
2018-01-11T03:26:26.174Z,99899.72
2018-01-11T03:28:53.624Z,99897.95
2018-01-11T03:31:21.107Z,99892.96
2018-01-11T03:33:48.595Z,99895.48
2018-01-11T03:36:16.048Z,99900.77
2018-01-11T03:38:43.535Z,99895.59
2018-01-11T03:41:10.986Z,99904.10
2018-01-11T03:43:38.456Z,99906.62
2018-01-11T03:46:06.717Z,99907.85
2018-01-11T03:48:34.183Z,99901.91
2018-01-11T03:51:01.677Z,99901.23
2018-01-11T03:53:29.144Z,99906.67
2018-01-11T03:55:56.609Z,99911.81
2018-01-11T03:58:24.079Z,99907.55
2018-01-11T04:00:51.528Z,99913.94
2018-01-11T04:03:19.016Z,99913.29
2018-01-11T04:05:46.473Z,99908.58
2018-01-11T04:08:13.920Z,99909.95
2018-01-11T04:10:41.390Z,99913.28
2018-01-11T04:13:08.924Z,99912.31
2018-01-11T04:15:36.396Z,99912.31
2018-01-11T04:18:03.851Z,99908.75
2018-01-11T04:20:31.325Z,99912.07
2018-01-11T04:22:58.781Z,99914.21
2018-01-11T04:25:26.474Z,99909.72
2018-01-11T04:27:53.936Z,99915.19
2018-01-11T04:30:21.406Z,99904.88
2018-01-11T04:32:48.904Z,99910.75
2018-01-11T04:35:16.388Z,99908.38
2018-01-11T04:37:43.828Z,99913.84
2018-01-11T04:40:11.300Z,99916.80
2018-01-11T04:42:38.758Z,99916.84
2018-01-11T04:45:06.213Z,99916.22
2018-01-11T04:47:33.679Z,99914.21
2018-01-11T04:50:01.138Z,99916.06
2018-01-11T04:52:28.598Z,99917.89
2018-01-11T04:54:56.047Z,99919.71
2018-01-11T04:57:23.500Z,99923.91
2018-01-11T04:59:50.970Z,99926.68
2018-01-11T05:02:18.537Z,99922.48
2018-01-11T05:04:45.994Z,99930.82
2018-01-11T05:07:13.451Z,99925.48
2018-01-11T05:09:40.944Z,99923.45
2018-01-11T05:12:08.406Z,99920.98
2018-01-11T05:14:35.872Z,99927.60
2018-01-11T05:17:03.318Z,99922.67
2018-01-11T05:19:30.792Z,99926.07
2018-01-11T05:21:58.248Z,99921.05
2018-01-11T05:24:25.764Z,99925.02
2018-01-11T05:26:53.274Z,99930.81
2018-01-11T05:29:20.827Z,99925.65
2018-01-11T05:31:48.278Z,99928.77
2018-01-11T05:34:15.755Z,99929.69
2018-01-11T05:36:43.326Z,99930.83
2018-01-11T05:39:10.783Z,99928.08
2018-01-11T05:41:38.251Z,99926.45
2018-01-11T05:44:05.712Z,99929.05
2018-01-11T05:46:33.184Z,99934.34
2018-01-11T05:49:00.675Z,99933.20
2018-01-11T05:51:28.131Z,99936.81
2018-01-11T05:53:55.579Z,99938.13
2018-01-11T05:56:23.056Z,99948.73
2018-01-11T05:58:50.532Z,99941.55
2018-01-11T06:01:17.983Z,99945.14
2018-01-11T06:03:45.471Z,99941.74
2018-01-11T06:06:12.932Z,99951.35
2018-01-11T06:08:40.407Z,99948.20
2018-01-11T06:11:07.852Z,99959.62
2018-01-11T06:13:35.321Z,99961.33
2018-01-11T06:16:02.795Z,99963.64
2018-01-11T06:18:30.269Z,99961.19
2018-01-11T06:20:57.720Z,99962.80
2018-01-11T06:23:25.259Z,99963.40
2018-01-11T06:25:52.708Z,99963.33
2018-01-11T06:28:20.204Z,99965.80
2018-01-11T06:30:47.668Z,99963.16
2018-01-11T06:33:15.229Z,99980.18
2018-01-11T06:35:42.701Z,99977.82
2018-01-11T06:38:10.164Z,99978.96
2018-01-11T06:40:37.652Z,99978.29
2018-01-11T06:43:05.090Z,99975.92
2018-01-11T06:45:32.538Z,99980.35
2018-01-11T06:47:59.992Z,99989.77
2018-01-11T06:50:27.459Z,99989.21
2018-01-11T06:52:54.933Z,99990.47
2018-01-11T06:55:22.469Z,99990.38
2018-01-11T06:57:49.990Z,99998.73
2018-01-11T07:00:17.481Z,99999.28
2018-01-11T07:02:44.950Z,100003.67
2018-01-11T07:05:12.448Z,100009.15
2018-01-11T07:07:39.901Z,100005.41
2018-01-11T07:10:07.354Z,100012.05
2018-01-11T07:12:34.810Z,100014.35
2018-01-11T07:15:02.260Z,100018.35
2018-01-11T07:17:29.737Z,100020.41
2018-01-11T07:19:57.194Z,100018.66
2018-01-11T07:22:24.660Z,100016.23
2018-01-11T07:24:52.113Z,100023.61
2018-01-11T07:27:19.576Z,100020.44
2018-01-11T07:29:47.032Z,100020.87
2018-01-11T07:32:14.669Z,100023.52
2018-01-11T07:34:42.230Z,100017.39
2018-01-11T07:37:09.783Z,100022.98
2018-01-11T07:39:37.290Z,100024.77
2018-01-11T07:42:04.764Z,100022.67
2018-01-11T07:44:32.253Z,100022.20
2018-01-11T07:46:59.742Z,100024.52
2018-01-11T07:49:27.208Z,100030.27
2018-01-11T07:51:54.797Z,100031.30
2018-01-11T07:54:22.260Z,100037.64
2018-01-11T07:56:49.811Z,100038.96
2018-01-11T07:59:17.392Z,100043.45
2018-01-11T08:01:44.953Z,100047.63
2018-01-11T08:04:12.844Z,100050.06
2018-01-11T08:06:40.313Z,100055.94
2018-01-11T08:09:07.782Z,100052.58
2018-01-11T08:11:35.296Z,100055.25
2018-01-11T08:14:02.754Z,100053.77
2018-01-11T08:16:30.220Z,100055.80
2018-01-11T08:18:57.764Z,100061.94
2018-01-11T08:21:25.226Z,100059.57
2018-01-11T08:23:52.703Z,100067.68
2018-01-11T08:26:20.242Z,100074.13
2018-01-11T08:28:47.737Z,100080.87
2018-01-11T08:31:15.206Z,100083.14
2018-01-11T08:33:42.655Z,100079.19
2018-01-11T08:36:10.114Z,100074.95
2018-01-11T08:38:37.599Z,100071.78
2018-01-11T08:41:05.098Z,100082.36
2018-01-11T08:43:32.722Z,100086.19
2018-01-11T08:46:00.191Z,100090.41
2018-01-11T08:48:27.695Z,100094.52
2018-01-11T08:50:55.177Z,100096.86
2018-01-11T08:53:22.669Z,100105.46
2018-01-11T08:55:50.131Z,100099.20
2018-01-11T08:58:17.585Z,100105.91
2018-01-11T09:00:45.076Z,100101.71
2018-01-11T09:03:12.544Z,100111.67
2018-01-11T09:05:40.016Z,100109.64
2018-01-11T09:08:07.474Z,100109.61
2018-01-11T09:10:34.963Z,100112.82
2018-01-11T09:13:02.409Z,100120.72
2018-01-11T09:15:29.878Z,100127.69
2018-01-11T09:17:57.370Z,100131.94
2018-01-11T09:20:25.033Z,100136.97
2018-01-11T09:22:52.499Z,100132.83
2018-01-11T09:25:19.974Z,100138.47
2018-01-11T09:27:47.437Z,100129.88
2018-01-11T09:30:14.910Z,100133.59
2018-01-11T09:32:42.385Z,100138.38
2018-01-11T09:35:09.841Z,100132.89
2018-01-11T09:37:37.322Z,100130.36
2018-01-11T09:40:04.841Z,100126.38
2018-01-11T09:42:32.312Z,100127.38
2018-01-11T09:44:59.803Z,100129.13
2018-01-11T09:47:27.286Z,100123.90
2018-01-11T09:49:54.804Z,100123.05
2018-01-11T09:52:22.278Z,100126.84
2018-01-11T09:54:49.750Z,100128.89
2018-01-11T09:57:17.261Z,100125.17
2018-01-11T09:59:44.730Z,100125.48
2018-01-11T10:02:12.190Z,100115.14
2018-01-11T10:04:39.708Z,100118.13
2018-01-11T10:07:07.207Z,100112.80
2018-01-11T10:09:34.705Z,100110.97
2018-01-11T10:12:02.188Z,100108.45
2018-01-11T10:14:29.652Z,100109.89
2018-01-11T10:16:57.102Z,100105.06
2018-01-11T10:19:24.587Z,100099.70
2018-01-11T10:21:52.064Z,100100.17
2018-01-11T10:24:19.527Z,100104.97
2018-01-11T10:26:46.989Z,100104.92
2018-01-11T10:29:14.447Z,100108.59
2018-01-11T10:31:41.923Z,100108.30
2018-01-11T10:34:09.391Z,100108.75
2018-01-11T10:36:36.867Z,100097.80
2018-01-11T10:39:04.347Z,100097.52
2018-01-11T10:41:31.929Z,100104.45
2018-01-11T10:43:59.498Z,100100.09
2018-01-11T10:46:26.972Z,100095.25
2018-01-11T10:48:54.469Z,100086.44
2018-01-11T10:51:21.941Z,100094.53
2018-01-11T10:53:49.423Z,100091.84
2018-01-11T10:56:16.899Z,100091.99
2018-01-11T10:58:44.368Z,100088.15
2018-01-11T11:01:17.381Z,100091.39
2018-01-11T11:03:44.871Z,100077.27
2018-01-11T11:06:12.341Z,100082.52
2018-01-11T11:08:39.800Z,100093.50
2018-01-11T11:11:08.589Z,100081.92
2018-01-11T11:13:36.072Z,100080.58
2018-01-11T11:16:03.533Z,100082.47
2018-01-11T11:18:31.150Z,100075.13
2018-01-11T11:20:58.631Z,100074.80
2018-01-11T11:23:26.090Z,100067.22
2018-01-11T11:25:53.560Z,100067.11
2018-01-11T11:28:21.044Z,100072.84
2018-01-11T11:30:48.624Z,100066.70
2018-01-11T11:33:16.100Z,100073.24
2018-01-11T11:35:43.638Z,100066.52
2018-01-11T11:38:11.144Z,100076.69
2018-01-11T11:40:38.611Z,100076.19
2018-01-11T11:43:06.078Z,100074.86
2018-01-11T11:45:33.576Z,100080.59
2018-01-11T11:48:01.126Z,100079.02
2018-01-11T11:50:28.616Z,100082.47
2018-01-11T11:52:56.075Z,100085.83
2018-01-11T11:55:23.564Z,100083.23
2018-01-11T11:57:51.046Z,100085.84
2018-01-11T12:00:18.509Z,100087.46
2018-01-11T12:02:45.987Z,100090.17
2018-01-11T12:05:13.470Z,100085.56
2018-01-11T12:07:40.937Z,100094.22
2018-01-11T12:10:08.404Z,100092.67
2018-01-11T12:12:35.878Z,100095.27
2018-01-11T12:15:03.355Z,100094.53
2018-01-11T12:17:30.827Z,100098.63
2018-01-11T12:19:58.275Z,100100.33
2018-01-11T12:22:25.738Z,100101.42
2018-01-11T12:24:53.187Z,100099.66
2018-01-11T12:27:20.651Z,100102.51
2018-01-11T12:29:48.351Z,100101.36
2018-01-11T12:32:15.823Z,100101.19
2018-01-11T12:34:47.126Z,100102.45
2018-01-11T12:37:14.602Z,100102.91
2018-01-11T12:39:42.145Z,100108.30
2018-01-11T12:42:09.637Z,100103.94
2018-01-11T12:44:37.089Z,100110.34
2018-01-11T12:47:04.552Z,100105.24
2018-01-11T12:49:32.033Z,100112.16
2018-01-11T12:51:59.496Z,100118.39
2018-01-11T12:54:27.005Z,100106.97
2018-01-11T12:56:54.473Z,100107.82
2018-01-11T12:59:21.935Z,100113.47
2018-01-11T13:01:49.398Z,100116.88
2018-01-11T13:04:16.948Z,100119.94
2018-01-11T13:06:44.413Z,100127.83
2018-01-11T13:09:11.903Z,100125.17
2018-01-11T13:11:39.369Z,100130.03
2018-01-11T13:14:06.849Z,100132.27
2018-01-11T13:16:34.322Z,100132.64
2018-01-11T13:19:01.773Z,100127.24
2018-01-11T13:21:29.261Z,100131.51
2018-01-11T13:23:56.709Z,100133.41
2018-01-11T13:26:24.199Z,100135.77
2018-01-11T13:28:51.668Z,100137.91
2018-01-11T13:31:19.183Z,100142.25
2018-01-11T13:33:46.645Z,100149.88
2018-01-11T13:36:14.134Z,100147.81
2018-01-11T13:38:41.612Z,100156.63
2018-01-11T13:41:09.263Z,100152.17
2018-01-11T13:43:36.872Z,100154.73
2018-01-11T13:46:04.347Z,100152.92
2018-01-11T13:48:31.917Z,100163.45
2018-01-11T13:50:59.608Z,100163.83
2018-01-11T13:53:27.134Z,100165.78
2018-01-11T13:55:54.647Z,100165.09
2018-01-11T13:58:22.103Z,100170.88
2018-01-11T14:00:49.584Z,100180.94
2018-01-11T14:03:17.045Z,100186.88
2018-01-11T14:05:44.503Z,100193.95
2018-01-11T14:08:11.985Z,100195.30
2018-01-11T14:10:39.483Z,100196.50
2018-01-11T14:13:06.952Z,100195.33
2018-01-11T14:15:34.449Z,100207.09
2018-01-11T14:18:01.960Z,100203.48
2018-01-11T14:20:29.938Z,100211.76
2018-01-11T14:22:57.451Z,100218.05
2018-01-11T14:25:24.921Z,100224.08
2018-01-11T14:27:52.463Z,100225.27
2018-01-11T14:30:19.935Z,100229.81
2018-01-11T14:32:47.398Z,100228.18
2018-01-11T14:35:14.980Z,100231.90
2018-01-11T14:37:42.447Z,100237.64
2018-01-11T14:40:09.937Z,100238.04
2018-01-11T14:42:37.410Z,100238.56
2018-01-11T14:45:04.878Z,100241.86
2018-01-11T14:47:32.344Z,100242.16
2018-01-11T14:49:59.807Z,100240.64
2018-01-11T14:52:27.280Z,100234.91
2018-01-11T14:54:54.736Z,100237.31
2018-01-11T14:57:22.193Z,100238.66
2018-01-11T14:59:49.654Z,100246.87
2018-01-11T15:02:17.124Z,100250.28
2018-01-11T15:04:44.568Z,100253.44
2018-01-11T15:07:12.057Z,100255.14
2018-01-11T15:09:39.531Z,100257.05
2018-01-11T15:12:07.007Z,100258.09
2018-01-11T15:14:34.491Z,100256.20
2018-01-11T15:17:01.955Z,100258.23
2018-01-11T15:19:29.413Z,100265.16
2018-01-11T15:21:56.900Z,100272.44
2018-01-11T15:24:24.404Z,100269.86
2018-01-11T15:26:51.887Z,100273.52
2018-01-11T15:29:19.367Z,100274.41
2018-01-11T15:31:46.860Z,100281.35
2018-01-11T15:34:14.356Z,100281.89
2018-01-11T15:36:41.929Z,100290.02
2018-01-11T15:39:09.390Z,100282.19
2018-01-11T15:41:36.883Z,100290.79
2018-01-11T15:44:04.345Z,100291.58
2018-01-11T15:46:31.933Z,100293.89
2018-01-11T15:48:59.525Z,100303.05
2018-01-11T15:51:26.994Z,100303.83
2018-01-11T15:53:54.473Z,100303.53
2018-01-11T15:56:21.948Z,100309.34
2018-01-11T15:58:49.446Z,100311.67
2018-01-11T16:01:16.905Z,100313.70
2018-01-11T16:03:44.380Z,100311.03
2018-01-11T16:06:11.855Z,100309.66
2018-01-11T16:08:39.367Z,100315.50
2018-01-11T16:11:06.843Z,100316.95
2018-01-11T16:13:34.320Z,100319.45
2018-01-11T16:16:01.895Z,100318.10
2018-01-11T16:18:29.425Z,100319.94
2018-01-11T16:20:56.937Z,100329.23
2018-01-11T16:23:24.427Z,100329.38
2018-01-11T16:25:51.929Z,100333.72
2018-01-11T16:28:19.400Z,100333.59
2018-01-11T16:30:46.977Z,100342.05
2018-01-11T16:33:14.433Z,100339.05
2018-01-11T16:35:41.893Z,100337.58
2018-01-11T16:38:09.359Z,100348.73
2018-01-11T16:40:36.825Z,100353.78
2018-01-11T16:43:04.315Z,100355.31
2018-01-11T16:45:31.760Z,100354.02
2018-01-11T16:48:01.562Z,100355.92
2018-01-11T16:50:29.136Z,100351.31
2018-01-11T16:52:56.693Z,100358.77
2018-01-11T16:55:25.118Z,100359.75
2018-01-11T16:57:52.689Z,100370.27
2018-01-11T17:00:20.157Z,100371.88
2018-01-11T17:02:47.623Z,100368.84
2018-01-11T17:05:15.130Z,100367.97
2018-01-11T17:07:42.610Z,100378.69
2018-01-11T17:10:10.116Z,100384.23
2018-01-11T17:12:37.573Z,100385.84
2018-01-11T17:15:05.046Z,100390.30
2018-01-11T17:17:32.523Z,100398.54
2018-01-11T17:20:00.016Z,100390.22
2018-01-11T17:22:27.484Z,100397.25
2018-01-11T17:24:55.006Z,100398.86
2018-01-11T17:27:22.499Z,100406.70
2018-01-11T17:29:49.972Z,100405.84
2018-01-11T17:32:17.437Z,100404.20
2018-01-11T17:34:44.888Z,100402.20
2018-01-11T17:37:12.341Z,100410.56
2018-01-11T17:39:39.791Z,100404.37
2018-01-11T17:42:07.254Z,100413.58
2018-01-11T17:44:34.718Z,100412.69
2018-01-11T17:47:02.198Z,100416.67
2018-01-11T17:49:29.679Z,100418.64
2018-01-11T17:51:57.173Z,100419.99
2018-01-11T17:54:24.658Z,100423.63
2018-01-11T17:56:52.158Z,100431.18
2018-01-11T17:59:19.613Z,100427.17
2018-01-11T18:01:47.098Z,100429.08
2018-01-11T18:04:14.574Z,100429.01
2018-01-11T18:06:49.616Z,100430.22
2018-01-11T18:09:17.091Z,100436.19
2018-01-11T18:11:44.549Z,100439.17
2018-01-11T18:14:12.031Z,100439.57
2018-01-11T18:16:39.502Z,100440.23
2018-01-11T18:19:06.973Z,100441.81
2018-01-11T18:21:34.433Z,100449.78
2018-01-11T18:24:02.018Z,100452.83
2018-01-11T18:26:29.520Z,100452.83
2018-01-11T18:28:57.147Z,100457.54
2018-01-11T18:31:24.637Z,100461.91
2018-01-11T18:33:52.105Z,100455.67
2018-01-11T18:36:19.595Z,100467.66
2018-01-11T18:38:47.060Z,100468.06
2018-01-11T18:41:14.577Z,100472.29
2018-01-11T18:43:42.034Z,100468.59
2018-01-11T18:46:09.562Z,100470.97
2018-01-11T18:48:37.011Z,100476.98
2018-01-11T18:51:04.482Z,100484.06
2018-01-11T18:53:31.988Z,100488.91
2018-01-11T18:55:59.507Z,100484.88
2018-01-11T18:58:26.970Z,100488.52
2018-01-11T19:00:54.468Z,100486.10
2018-01-11T19:03:21.937Z,100488.11
2018-01-11T19:05:49.471Z,100489.69
2018-01-11T19:08:16.914Z,100496.56
2018-01-11T19:10:44.379Z,100504.03
2018-01-11T19:13:11.840Z,100498.73
2018-01-11T19:15:39.375Z,100506.08
2018-01-11T19:18:06.823Z,100502.48
2018-01-11T19:20:34.276Z,100508.56
2018-01-11T19:23:01.746Z,100507.87
2018-01-11T19:25:29.232Z,100508.00
2018-01-11T19:27:56.723Z,100511.30
2018-01-11T19:30:24.233Z,100502.67
2018-01-11T19:32:51.753Z,100504.69
2018-01-11T19:35:19.204Z,100504.41
2018-01-11T19:37:46.677Z,100507.19
2018-01-11T19:40:14.166Z,100508.39
2018-01-11T19:42:41.684Z,100514.25
2018-01-11T19:45:09.146Z,100522.63
2018-01-11T19:47:36.597Z,100516.27
2018-01-11T19:50:04.060Z,100519.36
2018-01-11T19:52:31.522Z,100520.77
2018-01-11T19:54:59.464Z,100531.63
2018-01-11T19:57:27.036Z,100532.52
2018-01-11T19:59:54.554Z,100535.42
2018-01-11T20:02:22.054Z,100538.53
2018-01-11T20:04:49.566Z,100541.25
2018-01-11T20:07:17.019Z,100541.46
2018-01-11T20:09:44.547Z,100542.48
2018-01-11T20:12:12.063Z,100549.20
2018-01-11T20:14:39.533Z,100549.14
2018-01-11T20:17:06.992Z,100556.95
2018-01-11T20:19:34.460Z,100568.34
2018-01-11T20:22:01.949Z,100566.28
2018-01-11T20:24:29.421Z,100572.64
2018-01-11T20:26:56.952Z,100575.35
2018-01-11T20:29:24.418Z,100579.11
2018-01-11T20:31:51.878Z,100580.50
2018-01-11T20:34:19.358Z,100578.59
2018-01-11T20:36:46.864Z,100577.61
2018-01-11T20:39:14.350Z,100578.25
2018-01-11T20:41:41.824Z,100578.96
2018-01-11T20:44:09.322Z,100578.16
2018-01-11T20:46:36.809Z,100576.41
2018-01-11T20:49:04.267Z,100579.09
2018-01-11T20:51:31.750Z,100582.14
2018-01-11T20:53:59.218Z,100585.63
2018-01-11T20:56:26.690Z,100586.61
2018-01-11T20:58:54.185Z,100584.95
2018-01-11T21:01:21.661Z,100584.30
2018-01-11T21:03:49.173Z,100575.50
2018-01-11T21:06:16.654Z,100577.55
2018-01-11T21:08:44.216Z,100585.78
2018-01-11T21:11:11.689Z,100586.30
2018-01-11T21:13:39.179Z,100592.20
2018-01-11T21:16:06.652Z,100592.14
2018-01-11T21:18:34.110Z,100594.70
2018-01-11T21:21:01.588Z,100597.91
2018-01-11T21:23:36.355Z,100597.30
2018-01-11T21:26:12.190Z,100594.73
2018-01-11T21:28:39.736Z,100606.34
2018-01-11T21:31:07.194Z,100604.61
2018-01-11T21:33:34.662Z,100612.27
2018-01-11T21:36:02.204Z,100612.66
2018-01-11T21:38:29.761Z,100627.14
2018-01-11T21:40:57.234Z,100623.84
2018-01-11T21:43:24.729Z,100625.45
2018-01-11T21:45:52.219Z,100638.74
2018-01-11T21:48:19.688Z,100635.16
2018-01-11T21:50:47.139Z,100639.16
2018-01-11T21:53:14.653Z,100640.16
2018-01-11T21:55:42.126Z,100634.91
2018-01-11T21:58:10.350Z,100636.38
2018-01-11T22:00:37.828Z,100637.72
2018-01-11T22:03:05.288Z,100648.31
2018-01-11T22:05:32.762Z,100644.73
2018-01-11T22:08:00.273Z,100645.10
2018-01-11T22:10:27.734Z,100650.69
2018-01-11T22:12:55.226Z,100655.59
2018-01-11T22:15:22.672Z,100663.42
2018-01-11T22:17:50.139Z,100660.34
2018-01-11T22:20:17.594Z,100655.80
2018-01-11T22:22:45.078Z,100654.20
2018-01-11T22:25:12.535Z,100659.03
2018-01-11T22:27:40.039Z,100654.65
2018-01-11T22:30:07.505Z,100656.96
2018-01-11T22:32:34.965Z,100659.03
2018-01-11T22:35:02.440Z,100661.66
2018-01-11T22:37:29.910Z,100651.03
2018-01-11T22:39:57.375Z,100665.33
2018-01-11T22:42:24.835Z,100658.20
2018-01-11T22:44:52.304Z,100653.97
2018-01-11T22:47:19.747Z,100664.34
2018-01-11T22:49:47.200Z,100667.30
2018-01-11T22:52:14.655Z,100670.14
2018-01-11T22:54:42.356Z,100672.69
2018-01-11T22:57:09.822Z,100676.79
2018-01-11T22:59:37.288Z,100671.57
2018-01-11T23:02:04.739Z,100676.88
2018-01-11T23:04:32.186Z,100678.09
2018-01-11T23:06:59.669Z,100671.97
2018-01-11T23:09:27.140Z,100675.62
2018-01-11T23:11:54.630Z,100686.36
2018-01-11T23:14:22.083Z,100687.72
2018-01-11T23:16:49.570Z,100689.33
2018-01-11T23:19:17.029Z,100692.75
2018-01-11T23:21:44.510Z,100694.33
2018-01-11T23:24:12.003Z,100698.42
2018-01-11T23:26:39.466Z,100702.75
2018-01-11T23:29:17.390Z,100704.16
2018-01-11T23:31:45.662Z,100704.81
2018-01-11T23:34:14.849Z,100706.20
2018-01-11T23:36:42.328Z,100706.61
2018-01-11T23:39:09.805Z,100713.59
2018-01-11T23:41:37.256Z,100714.17
2018-01-11T23:44:04.740Z,100707.93
2018-01-11T23:46:32.214Z,100711.63
2018-01-11T23:48:59.684Z,100713.52
2018-01-11T23:51:27.146Z,100713.77
2018-01-11T23:53:54.619Z,100711.92
2018-01-11T23:56:22.098Z,100714.17
2018-01-11T23:58:49.581Z,100710.19
